Time;durP1;ratioP1;P1;durP2;ratioP2;P2;SDS_P1;SDS_P2;PMS_P1;PMS_P2;Temp;Humidity;BMP_temperature;BMP_pressure;BME280_temperature;BME280_humidity;BME280_pressure;Samples;Min_cycle;Max_cycle;Signal;HPM_P1;HPM_P2
2021/11/05 00:00:51;;;;;;;2.95;0.82;;;18.10;99.90;;;;;;5093389;28;20026;-74
2021/11/05 00:03:16;;;;;;;3.42;1.20;;;18.00;99.90;;;;;;5093165;28;20054;-82
2021/11/05 00:05:42;;;;;;;2.20;0.90;;;18.10;99.90;;;;;;5093759;28;20024;-80
2021/11/05 00:08:08;;;;;;;1.92;0.70;;;18.10;99.90;;;;;;5091506;28;20074;-75
2021/11/05 00:10:40;;;;;;;3.13;1.00;;;18.00;99.90;;;;;;5093628;28;20107;-75
2021/11/05 00:13:06;;;;;;;3.00;1.13;;;18.00;99.90;;;;;;5091966;28;20495;-77
2021/11/05 00:15:31;;;;;;;2.92;0.95;;;18.00;99.90;;;;;;5093509;28;20024;-78
2021/11/05 00:17:57;;;;;;;2.95;1.00;;;18.10;99.90;;;;;;5093101;28;20495;-74
2021/11/05 00:20:24;;;;;;;3.70;0.82;;;18.10;99.90;;;;;;5092078;28;20429;-71
2021/11/05 00:22:50;;;;;;;2.65;0.80;;;18.00;99.90;;;;;;5091316;28;20496;-76
2021/11/05 00:25:15;;;;;;;4.00;1.15;;;18.00;99.90;;;;;;5092331;28;20027;-72
2021/11/05 00:27:41;;;;;;;2.10;0.95;;;18.10;99.90;;;;;;5092850;28;20024;-74
2021/11/05 00:30:09;;;;;;;1.85;0.80;;;18.00;99.90;;;;;;5092513;28;20084;-72
2021/11/05 00:32:35;;;;;;;2.42;0.80;;;18.00;99.90;;;;;;5092773;28;20391;-72
2021/11/05 00:35:01;;;;;;;1.85;0.70;;;18.00;99.90;;;;;;5092865;28;20078;-73
2021/11/05 00:37:27;;;;;;;2.22;0.80;;;18.00;99.90;;;;;;5092390;28;20059;-77
2021/11/05 00:39:53;;;;;;;2.30;0.90;;;18.00;99.90;;;;;;5092521;28;20031;-78
2021/11/05 00:42:18;;;;;;;3.45;0.70;;;18.00;99.90;;;;;;5092127;28;20016;-76
2021/11/05 00:44:44;;;;;;;2.15;1.00;;;18.00;99.90;;;;;;5092562;28;20395;-75
2021/11/05 00:47:10;;;;;;;1.45;0.80;;;18.00;99.90;;;;;;5092135;28;20020;-76
2021/11/05 00:49:36;;;;;;;2.55;0.75;;;18.00;99.90;;;;;;5092496;28;20035;-77
2021/11/05 00:52:01;;;;;;;2.40;0.70;;;18.00;99.90;;;;;;5092635;28;20111;-76
2021/11/05 00:54:27;;;;;;;2.20;0.80;;;17.90;99.90;;;;;;5092087;28;20102;-76
2021/11/05 00:56:53;;;;;;;2.03;0.68;;;18.00;99.90;;;;;;5092272;28;20481;-74
2021/11/05 00:59:18;;;;;;;2.60;1.00;;;18.00;99.90;;;;;;5091852;28;20032;-77
2021/11/05 01:01:44;;;;;;;1.15;0.50;;;18.00;99.90;;;;;;5092212;28;20356;-76
2021/11/05 01:04:10;;;;;;;2.03;0.50;;;18.00;99.90;;;;;;5091979;28;20475;-76
2021/11/05 01:06:35;;;;;;;2.58;0.90;;;18.00;99.90;;;;;;5092163;28;20426;-75
2021/11/05 01:09:02;;;;;;;1.52;0.60;;;18.00;99.90;;;;;;5092401;28;20026;-79
2021/11/05 01:11:28;;;;;;;2.80;0.95;;;18.00;99.90;;;;;;5091792;28;20021;-76
2021/11/05 01:13:54;;;;;;;2.10;0.85;;;18.00;99.90;;;;;;5091957;28;20101;-75
2021/11/05 01:16:20;;;;;;;4.30;0.70;;;18.00;99.90;;;;;;5091728;28;20040;-76
2021/11/05 01:18:47;;;;;;;2.15;0.90;;;18.00;99.90;;;;;;5091870;28;20071;-73
2021/11/05 01:21:14;;;;;;;1.70;0.77;;;18.00;99.90;;;;;;5091641;28;20023;-73
2021/11/05 01:23:39;;;;;;;2.80;0.70;;;18.00;99.90;;;;;;5091861;28;20070;-71
2021/11/05 01:26:05;;;;;;;1.13;0.68;;;18.00;99.90;;;;;;5091694;28;20056;-71
2021/11/05 01:28:31;;;;;;;3.15;0.73;;;18.00;99.90;;;;;;5091992;28;20027;-74
2021/11/05 01:30:56;;;;;;;2.35;0.60;;;18.00;99.90;;;;;;5091781;28;20052;-75
2021/11/05 01:33:22;;;;;;;1.10;0.70;;;18.00;99.90;;;;;;5090884;28;20039;-75
2021/11/05 01:35:49;;;;;;;1.70;0.70;;;18.00;99.90;;;;;;5091619;28;20028;-72
2021/11/05 01:38:15;;;;;;;1.27;0.50;;;18.00;99.90;;;;;;5091335;28;20039;-72
2021/11/05 01:40:42;;;;;;;2.05;0.90;;;18.00;99.90;;;;;;5091790;28;20012;-73
2021/11/05 01:43:08;;;;;;;1.33;0.60;;;18.00;99.90;;;;;;5090187;28;20111;-72
2021/11/05 01:45:34;;;;;;;2.15;0.70;;;18.10;99.90;;;;;;5091896;28;20111;-73
2021/11/05 01:48:00;;;;;;;2.17;0.73;;;18.00;99.90;;;;;;5091744;28;20021;-74
2021/11/05 01:50:27;;;;;;;0.98;0.50;;;18.10;99.90;;;;;;5091314;28;20149;-71
2021/11/05 01:52:54;;;;;;;1.92;0.60;;;18.10;99.90;;;;;;5091399;28;20067;-71
2021/11/05 01:55:19;;;;;;;2.00;0.50;;;18.00;99.90;;;;;;5091263;28;20028;-73
2021/11/05 01:57:46;;;;;;;2.17;1.00;;;18.00;99.90;;;;;;5091279;28;20388;-74
2021/11/05 02:00:15;;;;;;;1.83;0.70;;;18.10;99.90;;;;;;5090064;28;20016;-76
2021/11/05 02:02:41;;;;;;;2.13;0.75;;;18.10;99.90;;;;;;5091433;28;20039;-77
2021/11/05 02:05:07;;;;;;;1.58;0.57;;;18.10;99.90;;;;;;5091114;28;20016;-73
2021/11/05 02:07:35;;;;;;;1.33;0.65;;;18.00;99.90;;;;;;5091691;28;20032;-74
2021/11/05 02:10:05;;;;;;;3.65;0.60;;;18.00;99.90;;;;;;5091677;28;20044;-76
2021/11/05 02:12:31;;;;;;;1.92;0.50;;;18.00;99.90;;;;;;5091675;28;20024;-72
2021/11/05 02:15:01;;;;;;;1.52;0.60;;;18.10;99.90;;;;;;5091366;28;20548;-79
2021/11/05 02:17:27;;;;;;;1.73;0.80;;;18.10;99.90;;;;;;5091129;28;20099;-74
2021/11/05 02:19:54;;;;;;;1.35;0.55;;;18.10;99.90;;;;;;5091271;28;20024;-76
2021/11/05 02:22:20;;;;;;;1.15;0.40;;;18.10;99.90;;;;;;5090877;28;20051;-77
2021/11/05 02:24:46;;;;;;;4.40;0.50;;;18.00;99.90;;;;;;5091313;28;20051;-78
2021/11/05 02:27:12;;;;;;;2.28;0.57;;;18.10;99.90;;;;;;5091119;28;20051;-77
2021/11/05 02:29:37;;;;;;;1.10;0.50;;;18.10;99.90;;;;;;5091157;28;20028;-74
2021/11/05 02:32:05;;;;;;;2.65;0.60;;;18.10;99.90;;;;;;5091469;28;20033;-76
2021/11/05 02:34:32;;;;;;;1.85;0.57;;;18.10;99.90;;;;;;5091260;28;20052;-79
2021/11/05 02:37:03;;;;;;;1.17;0.60;;;18.10;99.90;;;;;;5091123;28;20027;-77
2021/11/05 02:39:29;;;;;;;0.90;0.50;;;18.10;99.90;;;;;;5090953;28;20028;-74
2021/11/05 02:41:55;;;;;;;1.73;0.57;;;18.10;99.90;;;;;;5091092;28;20459;-73
2021/11/05 02:44:21;;;;;;;2.35;0.50;;;18.10;99.90;;;;;;5092561;28;20048;-74
2021/11/05 02:46:48;;;;;;;2.20;0.85;;;18.10;99.90;;;;;;5094770;28;20502;-76
2021/11/05 02:49:16;;;;;;;1.60;0.50;;;18.10;99.90;;;;;;5094627;28;20028;-75
2021/11/05 02:51:44;;;;;;;1.02;0.50;;;18.10;99.90;;;;;;5094902;28;20448;-74
2021/11/05 02:54:10;;;;;;;1.90;0.60;;;18.10;99.90;;;;;;5094463;28;20086;-74
2021/11/05 02:56:36;;;;;;;1.25;0.60;;;18.10;99.90;;;;;;5094663;28;20036;-75
2021/11/05 02:59:04;;;;;;;1.45;0.55;;;18.20;99.90;;;;;;5093493;28;20036;-76
2021/11/05 03:01:30;;;;;;;1.05;0.40;;;18.10;99.90;;;;;;5094755;28;20064;-72
2021/11/05 03:04:08;;;;;;;1.08;0.60;;;18.20;99.90;;;;;;5094492;28;20472;-76
2021/11/05 03:06:40;;;;;;;1.08;0.45;;;18.20;99.90;;;;;;5094749;28;20417;-77
2021/11/05 03:09:07;;;;;;;1.20;0.43;;;18.20;99.90;;;;;;5094221;28;20039;-72
2021/11/05 03:11:33;;;;;;;1.35;0.60;;;18.20;99.90;;;;;;5094530;28;20529;-74
2021/11/05 03:13:59;;;;;;;1.70;0.60;;;18.20;99.90;;;;;;5094106;28;20061;-79
2021/11/05 03:16:24;;;;;;;1.77;0.50;;;18.20;99.90;;;;;;5093852;28;20392;-72
2021/11/05 03:18:50;;;;;;;1.55;0.52;;;18.20;99.90;;;;;;5094086;28;20383;-78
2021/11/05 03:21:16;;;;;;;3.10;0.50;;;18.20;99.90;;;;;;5093854;28;20012;-79
2021/11/05 03:23:41;;;;;;;2.83;0.60;;;18.20;99.90;;;;;;5094040;28;20536;-75
2021/11/05 03:26:07;;;;;;;1.48;0.45;;;18.20;99.90;;;;;;5093730;28;20146;-72
2021/11/05 03:28:33;;;;;;;1.42;0.50;;;18.20;99.90;;;;;;5094297;28;20032;-76
2021/11/05 03:30:58;;;;;;;1.88;0.30;;;18.20;99.90;;;;;;5094017;28;20471;-73
2021/11/05 03:33:24;;;;;;;1.05;0.47;;;18.20;99.90;;;;;;5093608;28;20040;-74
2021/11/05 03:35:50;;;;;;;2.08;0.47;;;18.30;99.90;;;;;;5093774;28;20384;-73
2021/11/05 03:38:15;;;;;;;1.58;0.60;;;18.20;99.90;;;;;;5093479;28;20027;-76
2021/11/05 03:40:41;;;;;;;1.20;0.60;;;18.30;99.90;;;;;;5093905;28;20052;-73
2021/11/05 03:43:07;;;;;;;2.60;0.40;;;18.30;99.90;;;;;;5093612;28;20034;-78
2021/11/05 03:45:32;;;;;;;1.10;0.50;;;18.30;99.90;;;;;;5093868;28;20436;-79
2021/11/05 03:47:58;;;;;;;1.70;0.70;;;18.30;99.90;;;;;;5093567;28;20031;-73
2021/11/05 03:50:24;;;;;;;1.35;0.50;;;18.30;99.90;;;;;;5093304;28;20452;-74
2021/11/05 03:52:49;;;;;;;1.92;0.60;;;18.30;99.90;;;;;;5093414;28;20032;-74
2021/11/05 03:55:15;;;;;;;1.98;0.45;;;18.30;99.90;;;;;;5092260;28;20471;-73
2021/11/05 03:57:41;;;;;;;1.85;0.50;;;18.30;99.90;;;;;;5093242;28;20028;-79
2021/11/05 04:00:09;;;;;;;0.85;0.40;;;18.30;99.90;;;;;;5093104;28;20031;-73
2021/11/05 04:02:36;;;;;;;2.58;0.50;;;18.20;99.90;;;;;;5093233;28;20031;-73
2021/11/05 04:05:03;;;;;;;1.92;0.40;;;18.30;99.90;;;;;;5093430;28;20034;-74
2021/11/05 04:07:29;;;;;;;1.40;0.50;;;18.30;99.90;;;;;;5093076;28;20028;-73
2021/11/05 04:09:54;;;;;;;1.73;0.45;;;18.30;99.90;;;;;;5093124;28;20040;-73
2021/11/05 04:12:21;;;;;;;2.80;0.50;;;18.30;99.90;;;;;;5092846;28;20115;-72
2021/11/05 04:14:46;;;;;;;0.90;0.40;;;18.30;99.90;;;;;;5093007;28;20079;-75
2021/11/05 04:17:13;;;;;;;0.90;0.40;;;18.30;99.90;;;;;;5092814;28;20032;-74
2021/11/05 04:19:43;;;;;;;3.17;0.68;;;18.30;99.90;;;;;;5093159;28;20020;-76
2021/11/05 04:22:09;;;;;;;2.05;0.70;;;18.30;99.90;;;;;;5092721;28;20016;-75
2021/11/05 04:24:35;;;;;;;1.77;0.55;;;18.40;99.90;;;;;;5093020;28;20028;-73
2021/11/05 04:27:01;;;;;;;1.98;0.50;;;18.30;99.90;;;;;;5093183;28;20106;-72
2021/11/05 04:29:27;;;;;;;1.00;0.30;;;18.30;99.90;;;;;;5092586;28;20016;-73
2021/11/05 04:31:52;;;;;;;1.25;0.52;;;18.30;99.90;;;;;;5092728;28;20035;-73
2021/11/05 04:34:18;;;;;;;1.58;0.52;;;18.30;99.90;;;;;;5092515;28;20126;-76
2021/11/05 04:36:44;;;;;;;2.00;0.52;;;18.40;99.90;;;;;;5092594;28;20024;-75
2021/11/05 04:39:15;;;;;;;2.10;0.50;;;18.40;99.90;;;;;;5092426;28;20024;-73
2021/11/05 04:41:41;;;;;;;2.30;0.40;;;18.40;99.90;;;;;;5092657;28;20023;-74
2021/11/05 04:44:07;;;;;;;2.17;0.65;;;18.40;99.90;;;;;;5092320;28;20020;-73
2021/11/05 04:46:33;;;;;;;1.23;0.52;;;18.40;99.90;;;;;;5092770;28;20051;-75
2021/11/05 04:48:58;;;;;;;1.92;0.60;;;18.40;99.90;;;;;;5092481;28;20475;-76
2021/11/05 04:51:25;;;;;;;1.60;0.50;;;18.40;99.90;;;;;;5092307;28;20596;-75
2021/11/05 04:53:50;;;;;;;1.17;0.43;;;18.40;99.90;;;;;;5092282;28;20434;-75
2021/11/05 04:56:16;;;;;;;1.60;0.40;;;18.40;99.90;;;;;;5092100;28;20016;-73
2021/11/05 04:58:42;;;;;;;1.48;0.40;;;18.40;99.90;;;;;;5092239;28;20120;-75
2021/11/05 05:01:08;;;;;;;1.20;0.40;;;18.40;99.90;;;;;;5091967;28;20379;-75
2021/11/05 05:03:33;;;;;;;1.55;0.45;;;18.40;99.90;;;;;;5092609;28;20095;-74
2021/11/05 05:05:59;;;;;;;1.42;0.50;;;18.40;99.90;;;;;;5092239;28;20062;-72
2021/11/05 05:08:25;;;;;;;1.00;0.50;;;18.40;99.90;;;;;;5091726;28;20106;-73
2021/11/05 05:10:51;;;;;;;3.95;0.60;;;18.40;99.90;;;;;;5092070;28;20039;-72
2021/11/05 05:13:17;;;;;;;0.73;0.30;;;18.40;99.90;;;;;;5091776;28;20028;-74
2021/11/05 05:15:42;;;;;;;1.73;0.50;;;18.40;99.90;;;;;;5092060;28;20043;-75
2021/11/05 05:18:08;;;;;;;1.15;0.40;;;18.40;99.90;;;;;;5091811;28;20060;-72
2021/11/05 05:20:34;;;;;;;2.17;0.77;;;18.40;99.90;;;;;;5092268;28;20107;-74
2021/11/05 05:23:00;;;;;;;1.55;0.25;;;18.40;99.90;;;;;;5092180;28;20016;-72
2021/11/05 05:25:25;;;;;;;1.88;0.40;;;18.40;99.90;;;;;;5091574;28;20020;-72
2021/11/05 05:27:51;;;;;;;0.88;0.30;;;18.40;99.90;;;;;;5091887;28;20024;-73
2021/11/05 05:30:18;;;;;;;2.17;0.50;;;18.40;99.90;;;;;;5091557;28;20024;-73
2021/11/05 05:32:47;;;;;;;1.92;0.40;;;18.40;99.90;;;;;;5091750;28;20490;-72
2021/11/05 05:35:13;;;;;;;1.40;0.40;;;18.40;99.90;;;;;;5091442;28;20043;-72
2021/11/05 05:37:39;;;;;;;2.08;0.50;;;18.40;99.90;;;;;;5091748;28;20537;-73
2021/11/05 05:40:07;;;;;;;1.17;0.47;;;18.40;99.90;;;;;;5091370;28;20036;-73
2021/11/05 05:42:32;;;;;;;1.88;0.43;;;18.40;99.90;;;;;;5091937;28;20103;-74
2021/11/05 05:44:58;;;;;;;1.70;0.60;;;18.40;99.90;;;;;;5091633;28;20058;-75
2021/11/05 05:47:23;;;;;;;1.20;0.50;;;18.40;99.90;;;;;;5091538;28;20020;-74
2021/11/05 05:49:51;;;;;;;1.48;0.43;;;18.40;99.90;;;;;;5091579;28;20024;-73
2021/11/05 05:52:17;;;;;;;1.33;0.60;;;18.40;99.90;;;;;;5091392;28;20040;-74
2021/11/05 05:54:42;;;;;;;1.38;0.43;;;18.40;99.90;;;;;;5091506;28;20084;-73
2021/11/05 05:57:09;;;;;;;1.20;0.50;;;18.50;99.90;;;;;;5091283;28;20460;-73
2021/11/05 05:59:36;;;;;;;1.45;0.30;;;18.40;99.90;;;;;;5091490;28;20043;-72
2021/11/05 06:02:01;;;;;;;1.08;0.40;;;18.40;99.90;;;;;;5091958;28;20021;-74
2021/11/05 06:04:27;;;;;;;2.15;0.50;;;18.50;99.90;;;;;;5091163;28;20425;-74
2021/11/05 06:06:54;;;;;;;0.77;0.30;;;18.50;99.90;;;;;;5091510;28;20024;-74
2021/11/05 06:09:20;;;;;;;1.65;0.57;;;18.50;99.90;;;;;;5091165;28;20154;-74
2021/11/05 06:11:45;;;;;;;1.67;0.50;;;18.50;99.90;;;;;;5090154;28;20095;-73
2021/11/05 06:14:12;;;;;;;0.80;0.40;;;18.50;99.90;;;;;;5091279;28;20036;-74
2021/11/05 06:16:39;;;;;;;1.38;0.60;;;18.50;99.90;;;;;;5091534;28;20099;-74
2021/11/05 06:19:05;;;;;;;1.88;0.40;;;18.50;99.90;;;;;;5092485;28;20028;-74
2021/11/05 06:21:31;;;;;;;1.77;0.50;;;18.50;99.90;;;;;;5095720;28;20032;-75
2021/11/05 06:23:56;;;;;;;0.88;0.30;;;18.50;99.90;;;;;;5095277;28;20043;-74
2021/11/05 06:26:22;;;;;;;1.00;0.38;;;18.50;99.90;;;;;;5095063;28;20099;-76
2021/11/05 06:28:48;;;;;;;1.02;0.50;;;18.50;99.90;;;;;;5095160;28;20055;-73
2021/11/05 06:31:14;;;;;;;1.20;0.40;;;18.60;99.90;;;;;;5094982;28;20028;-74
2021/11/05 06:33:40;;;;;;;1.27;0.55;;;18.60;99.90;;;;;;5095040;28;20388;-80
2021/11/05 06:36:06;;;;;;;2.33;0.50;;;18.60;99.90;;;;;;5094874;28;20103;-81
2021/11/05 06:38:32;;;;;;;1.00;0.52;;;18.60;99.90;;;;;;5095311;28;20031;-72
2021/11/05 06:40:58;;;;;;;1.48;0.47;;;18.60;99.90;;;;;;5094940;28;20024;-70
2021/11/05 06:43:23;;;;;;;2.92;0.60;;;18.60;99.90;;;;;;5094829;28;20030;-70
2021/11/05 06:45:49;;;;;;;1.63;0.40;;;18.60;99.90;;;;;;5094943;28;20016;-72
2021/11/05 06:48:15;;;;;;;2.78;0.57;;;18.60;99.90;;;;;;5094214;28;20104;-81
2021/11/05 06:50:42;;;;;;;1.27;0.70;;;18.60;99.90;;;;;;5094569;28;20024;-75
2021/11/05 06:53:11;;;;;;;3.45;0.63;;;18.60;99.90;;;;;;5094361;28;20040;-75
2021/11/05 06:55:38;;;;;;;1.40;0.63;;;18.60;99.90;;;;;;5094549;28;20027;-75
2021/11/05 06:58:05;;;;;;;0.98;0.30;;;18.60;99.90;;;;;;5095005;28;20492;-76
2021/11/05 07:00:31;;;;;;;1.50;0.50;;;18.60;99.90;;;;;;5094761;28;20111;-76
2021/11/05 07:02:59;;;;;;;3.08;0.70;;;18.60;99.90;;;;;;5094580;28;20032;-75
2021/11/05 07:05:25;;;;;;;2.05;0.55;;;18.60;99.90;;;;;;5094084;28;20091;-75
2021/11/05 07:07:51;;;;;;;1.75;0.60;;;18.60;99.90;;;;;;5094191;28;20100;-76
2021/11/05 07:10:17;;;;;;;1.95;0.70;;;18.60;99.90;;;;;;5092662;28;20166;-76
2021/11/05 07:12:43;;;;;;;2.13;0.70;;;18.60;99.90;;;;;;5094149;28;20031;-75
2021/11/05 07:15:10;;;;;;;1.10;0.50;;;18.60;99.90;;;;;;5092782;28;20032;-77
2021/11/05 07:17:36;;;;;;;1.25;0.50;;;18.60;99.90;;;;;;5094234;28;20081;-77
2021/11/05 07:20:04;;;;;;;2.08;0.50;;;18.60;99.90;;;;;;5094406;28;20034;-75
2021/11/05 07:22:29;;;;;;;3.90;0.63;;;18.60;99.90;;;;;;5093934;28;20028;-76
2021/11/05 07:24:55;;;;;;;2.15;0.70;;;18.60;99.90;;;;;;5094109;28;20032;-77
2021/11/05 07:27:21;;;;;;;1.88;0.50;;;18.60;99.90;;;;;;5093872;28;20107;-76
2021/11/05 07:29:46;;;;;;;1.40;0.50;;;18.60;99.90;;;;;;5093963;28;20028;-77
2021/11/05 07:32:12;;;;;;;2.38;0.77;;;18.60;99.90;;;;;;5093879;28;20024;-77
2021/11/05 07:34:40;;;;;;;4.45;0.80;;;18.60;99.90;;;;;;5093877;28;20024;-76
2021/11/05 07:37:11;;;;;;;2.20;0.80;;;18.50;99.90;;;;;;5093582;28;20016;-75
2021/11/05 07:39:36;;;;;;;2.10;0.63;;;18.60;99.90;;;;;;5093920;28;20470;-76
2021/11/05 07:42:02;;;;;;;1.80;0.70;;;18.60;99.90;;;;;;5094071;28;20021;-76
2021/11/05 07:44:28;;;;;;;2.92;0.80;;;18.60;99.90;;;;;;5093294;28;20020;-76
2021/11/05 07:46:54;;;;;;;1.60;0.60;;;18.60;99.90;;;;;;5093745;28;20597;-75
2021/11/05 07:49:19;;;;;;;1.63;0.70;;;18.60;99.90;;;;;;5093239;28;20426;-75
2021/11/05 07:51:45;;;;;;;1.58;0.70;;;18.60;99.90;;;;;;5093599;28;20031;-76
2021/11/05 07:54:11;;;;;;;3.08;0.75;;;18.50;99.90;;;;;;5093498;28;20080;-77
2021/11/05 07:56:37;;;;;;;1.17;0.57;;;18.50;99.90;;;;;;5093468;28;20016;-76
2021/11/05 07:59:04;;;;;;;2.70;0.82;;;18.50;99.90;;;;;;5093588;28;20028;-76
2021/11/05 08:01:30;;;;;;;1.45;0.50;;;18.50;99.90;;;;;;5092894;28;20024;-76
2021/11/05 08:03:55;;;;;;;0.73;0.45;;;18.50;99.90;;;;;;5093198;28;20031;-77
2021/11/05 08:06:21;;;;;;;2.13;0.60;;;18.50;99.90;;;;;;5093144;28;20103;-77
2021/11/05 08:08:47;;;;;;;1.88;0.70;;;18.50;99.90;;;;;;5091967;28;20028;-77
2021/11/05 08:11:13;;;;;;;2.10;0.80;;;18.50;99.90;;;;;;5093232;28;20035;-75
2021/11/05 08:13:39;;;;;;;2.30;0.77;;;18.50;99.90;;;;;;5093095;28;20111;-76
2021/11/05 08:16:05;;;;;;;1.88;0.65;;;18.50;99.90;;;;;;5092857;28;20056;-75
2021/11/05 08:18:31;;;;;;;2.80;0.82;;;18.50;99.90;;;;;;5093504;28;20054;-75
2021/11/05 08:20:56;;;;;;;4.30;0.65;;;18.50;99.90;;;;;;5093067;28;20026;-76
2021/11/05 08:23:22;;;;;;;4.80;0.80;;;18.50;99.90;;;;;;5091243;28;20024;-76
2021/11/05 08:25:48;;;;;;;2.92;0.80;;;18.50;99.90;;;;;;5092914;28;20027;-76
2021/11/05 08:28:16;;;;;;;1.52;0.70;;;18.50;99.90;;;;;;5092635;28;20032;-76
2021/11/05 08:30:44;;;;;;;1.98;0.82;;;18.50;99.90;;;;;;5092985;28;20020;-76
2021/11/05 08:33:09;;;;;;;2.30;0.90;;;18.50;99.90;;;;;;5092417;28;20032;-77
2021/11/05 08:35:36;;;;;;;1.02;0.55;;;18.50;99.90;;;;;;5092538;28;20034;-81
2021/11/05 08:38:04;;;;;;;2.17;0.65;;;18.50;99.90;;;;;;5093084;28;20085;-76
2021/11/05 08:40:30;;;;;;;3.15;0.80;;;18.50;99.90;;;;;;5091758;28;20028;-76
2021/11/05 08:42:56;;;;;;;3.40;0.70;;;18.50;99.90;;;;;;5090131;28;20032;-78
2021/11/05 08:45:22;;;;;;;2.63;0.63;;;18.50;99.90;;;;;;5092262;28;20024;-78
2021/11/05 08:47:47;;;;;;;3.53;0.90;;;18.50;99.90;;;;;;5091910;28;20031;-78
2021/11/05 08:50:17;;;;;;;2.10;0.90;;;18.50;99.90;;;;;;5091722;28;20090;-75
2021/11/05 08:52:43;;;;;;;2.53;0.68;;;18.50;99.90;;;;;;5092380;28;20034;-76
2021/11/05 08:55:10;;;;;;;2.53;0.73;;;18.50;99.90;;;;;;5091393;28;20024;-78
2021/11/05 08:57:36;;;;;;;4.78;1.00;;;18.50;99.90;;;;;;5090627;28;20028;-76
2021/11/05 09:00:10;;;;;;;0.77;0.50;;;18.50;99.90;;;;;;5092326;28;20051;-79
2021/11/05 09:02:35;;;;;;;1.35;0.63;;;18.50;99.90;;;;;;5092067;28;20081;-77
2021/11/05 09:05:02;;;;;;;1.60;0.60;;;18.50;99.90;;;;;;5092369;28;20059;-78
2021/11/05 09:07:28;;;;;;;2.38;0.65;;;18.50;99.90;;;;;;5091790;28;20032;-79
2021/11/05 09:09:55;;;;;;;2.20;0.80;;;18.50;99.90;;;;;;5090542;28;20385;-79
2021/11/05 09:12:21;;;;;;;1.77;0.70;;;18.50;99.90;;;;;;5091702;28;20024;-77
2021/11/05 09:14:46;;;;;;;3.33;1.20;;;18.50;99.90;;;;;;5091769;28;20024;-76
2021/11/05 09:17:12;;;;;;;3.15;0.80;;;18.50;99.90;;;;;;5091784;28;20085;-76
2021/11/05 09:19:38;;;;;;;1.92;0.50;;;18.60;99.90;;;;;;5091786;28;20020;-77
2021/11/05 09:22:03;;;;;;;2.95;0.80;;;18.60;99.90;;;;;;5092196;28;20077;-76
2021/11/05 09:24:29;;;;;;;2.53;0.70;;;18.60;99.90;;;;;;5091491;28;20025;-76
2021/11/05 09:26:55;;;;;;;1.80;0.70;;;18.60;99.90;;;;;;5091894;28;20110;-77
2021/11/05 09:29:20;;;;;;;2.40;0.95;;;18.60;99.90;;;;;;5091512;28;20023;-77
2021/11/05 09:31:46;;;;;;;2.50;0.90;;;18.60;99.90;;;;;;5091760;28;20028;-77
2021/11/05 09:34:12;;;;;;;1.65;0.70;;;18.60;99.90;;;;;;5091453;28;20068;-75
2021/11/05 09:36:37;;;;;;;3.70;0.90;;;18.60;99.90;;;;;;5091654;28;20020;-74
2021/11/05 09:39:04;;;;;;;4.20;1.27;;;18.60;99.90;;;;;;5091934;28;20022;-77
2021/11/05 09:41:30;;;;;;;5.15;1.30;;;18.60;99.90;;;;;;5091599;28;20024;-76
2021/11/05 09:43:56;;;;;;;4.45;1.00;;;18.60;99.90;;;;;;5091549;28;20095;-76
2021/11/05 09:46:21;;;;;;;7.90;1.40;;;18.60;99.90;;;;;;5091356;28;20020;-76
2021/11/05 09:48:49;;;;;;;5.32;1.30;;;18.50;99.90;;;;;;5090966;28;20035;-76
2021/11/05 09:51:14;;;;;;;5.78;1.50;;;18.50;99.90;;;;;;5091157;28;20024;-76
2021/11/05 09:53:40;;;;;;;8.77;1.75;;;18.50;99.90;;;;;;5092193;28;20039;-76
2021/11/05 09:56:13;;;;;;;5.15;1.35;;;18.50;99.90;;;;;;5095721;28;20024;-76
2021/11/05 09:58:39;;;;;;;6.37;1.67;;;18.50;99.90;;;;;;5095670;28;20039;-75
2021/11/05 10:01:06;;;;;;;6.75;1.80;;;18.50;99.90;;;;;;5095516;28;20266;-75
2021/11/05 10:03:32;;;;;;;4.28;1.60;;;18.50;99.90;;;;;;5095794;28;20058;-76
2021/11/05 10:05:58;;;;;;;8.43;1.70;;;18.50;99.90;;;;;;5095815;28;20051;-76
2021/11/05 10:08:33;;;;;;;6.22;1.65;;;18.50;99.90;;;;;;5095178;28;20024;-75
2021/11/05 10:11:38;;;;;;;6.43;1.38;;;18.50;99.90;;;;;;5095604;28;20094;-74
2021/11/05 10:14:04;;;;;;;6.75;1.60;;;18.50;99.90;;;;;;5095190;28;20044;-75
2021/11/05 10:16:32;;;;;;;5.65;1.70;;;18.40;99.90;;;;;;5095747;28;20020;-76
2021/11/05 10:19:06;;;;;;;7.93;1.35;;;18.40;99.90;;;;;;5094125;28;20024;-76
2021/11/05 10:21:42;;;;;;;;;;;18.40;99.90;;;;;;5096016;28;20039;-76
2021/11/05 10:24:12;;;;;;;3.03;1.10;;;18.40;99.90;;;;;;5095074;28;19904;-74
2021/11/05 10:26:37;;;;;;;5.97;1.63;;;18.40;99.90;;;;;;5095151;28;20522;-69
2021/11/05 10:29:07;;;;;;;5.63;1.17;;;18.40;99.90;;;;;;5095582;28;20028;-73
2021/11/05 10:31:35;;;;;;;4.30;1.00;;;18.40;99.90;;;;;;5095574;28;20020;-74
2021/11/05 10:34:02;;;;;;;9.80;1.40;;;18.40;99.90;;;;;;5095361;28;20032;-76
2021/11/05 10:36:27;;;;;;;6.53;1.30;;;18.40;99.90;;;;;;5094781;28;20515;-75
2021/11/05 10:39:04;;;;;;;3.75;1.33;;;18.40;99.90;;;;;;5095066;28;20066;-75
2021/11/05 10:41:31;;;;;;;7.03;1.40;;;18.50;99.90;;;;;;5095333;28;20024;-75
2021/11/05 10:44:00;;;;;;;4.90;1.40;;;18.50;99.90;;;;;;5094686;28;20028;-73
2021/11/05 10:46:31;;;;;;;7.85;1.45;;;18.50;99.90;;;;;;5094536;28;20020;-73
2021/11/05 10:49:05;;;;;;;5.40;1.30;;;18.50;99.90;;;;;;5093512;28;20073;-76
2021/11/05 10:51:32;;;;;;;3.50;1.30;;;18.50;99.90;;;;;;5095052;28;20068;-75
2021/11/05 10:53:59;;;;;;;4.20;1.35;;;18.60;99.90;;;;;;5093430;28;20089;-75
2021/11/05 10:56:29;;;;;;;4.80;1.38;;;18.60;99.90;;;;;;5094407;28;20688;-75
2021/11/05 10:58:57;;;;;;;3.28;0.95;;;18.60;99.90;;;;;;5094476;28;20044;-74
2021/11/05 11:01:25;;;;;;;4.30;1.27;;;18.60;99.90;;;;;;5094310;28;20024;-73
2021/11/05 11:03:57;;;;;;;2.30;0.80;;;18.70;99.90;;;;;;5094475;28;20099;-76
2021/11/05 11:06:28;;;;;;;4.07;1.20;;;18.70;99.90;;;;;;5093542;28;20038;-75
2021/11/05 11:09:04;;;;;;;7.90;1.40;;;18.70;99.90;;;;;;5094338;28;20388;-75
2021/11/05 11:11:35;;;;;;;7.82;1.80;;;18.70;99.90;;;;;;5094568;28;20040;-75
2021/11/05 11:14:18;;;;;;;7.03;1.75;;;18.80;99.90;;;;;;5094618;28;20036;-75
2021/11/05 11:16:48;;;;;;;7.68;2.35;;;18.80;99.90;;;;;;5094118;28;20020;-74
2021/11/05 11:19:16;;;;;;;6.00;2.45;;;18.80;99.90;;;;;;5093937;28;20032;-75
2021/11/05 11:21:57;;;;;;;6.85;2.00;;;18.80;99.90;;;;;;5094031;28;20039;-73
2021/11/05 11:24:26;;;;;;;7.20;2.40;;;18.90;99.90;;;;;;5094019;28;20027;-76
2021/11/05 11:26:53;;;;;;;7.20;2.38;;;18.90;99.90;;;;;;5093896;28;20181;-76
2021/11/05 11:29:22;;;;;;;4.40;1.95;;;18.90;99.90;;;;;;5093870;28;20475;-75
2021/11/05 11:31:49;;;;;;;6.68;2.33;;;18.90;99.90;;;;;;5093886;28;20036;-74
2021/11/05 11:34:16;;;;;;;5.32;2.28;;;18.90;99.90;;;;;;5093601;28;20057;-74
2021/11/05 11:36:47;;;;;;;7.43;2.80;;;18.90;99.90;;;;;;5093932;28;20023;-74
2021/11/05 11:39:16;;;;;;;4.93;2.38;;;18.90;99.90;;;;;;5093577;28;20369;-75
2021/11/05 11:41:42;;;;;;;6.93;2.78;;;19.00;99.90;;;;;;5093416;28;20111;-76
2021/11/05 11:44:12;;;;;;;6.35;2.28;;;18.90;99.90;;;;;;5093222;28;20103;-75
2021/11/05 11:47:05;;;;;;;7.60;1.95;;;19.00;99.90;;;;;;5093656;28;20384;-75
2021/11/05 11:49:32;;;;;;;5.72;2.05;;;19.00;99.90;;;;;;5093801;28;20016;-76
2021/11/05 11:51:58;;;;;;;6.35;2.00;;;19.00;99.90;;;;;;5093560;28;20384;-76
2021/11/05 11:54:24;;;;;;;6.20;1.70;;;19.00;99.90;;;;;;5093149;28;20042;-76
2021/11/05 11:56:52;;;;;;;5.43;2.00;;;19.00;99.90;;;;;;5093427;28;20024;-76
2021/11/05 11:59:29;;;;;;;5.47;1.83;;;19.00;99.90;;;;;;5092767;28;20035;-75
2021/11/05 12:01:55;;;;;;;5.22;1.90;;;19.00;99.90;;;;;;5093151;28;20032;-76
2021/11/05 12:04:33;;;;;;;5.32;1.92;;;19.00;99.90;;;;;;5093193;28;20091;-75
2021/11/05 12:07:01;;;;;;;4.55;2.00;;;19.00;99.90;;;;;;5093095;28;20020;-76
2021/11/05 12:09:38;;;;;;;5.20;2.28;;;19.00;99.90;;;;;;5093011;28;20463;-76
2021/11/05 12:12:22;;;;;;;4.82;1.77;;;19.10;99.90;;;;;;5093714;28;20043;-76
2021/11/05 12:15:00;;;;;;;4.95;1.80;;;19.00;99.90;;;;;;5093162;28;20020;-76
2021/11/05 12:17:31;;;;;;;4.80;1.75;;;19.00;99.90;;;;;;5092104;28;20051;-75
2021/11/05 12:20:00;;;;;;;5.75;1.80;;;19.10;99.90;;;;;;5092928;28;20024;-76
2021/11/05 12:22:28;;;;;;;4.15;1.45;;;19.00;99.90;;;;;;5092709;28;20472;-76
2021/11/05 12:25:17;;;;;;;5.03;1.77;;;19.10;99.90;;;;;;5092905;28;20024;-76
2021/11/05 12:28:16;;;;;;;5.18;1.98;;;19.10;99.90;;;;;;5093012;28;20073;-76
2021/11/05 12:30:43;;;;;;;2.85;1.40;;;19.10;99.90;;;;;;5092895;28;20265;-76
2021/11/05 12:33:30;;;;;;;4.38;1.60;;;19.10;99.90;;;;;;5092526;28;20051;-77
2021/11/05 12:35:57;;;;;;;7.28;1.92;;;19.10;99.90;;;;;;5092629;28;20020;-77
2021/11/05 12:38:23;;;;;;;3.72;1.55;;;19.10;99.90;;;;;;5092160;28;20028;-76
2021/11/05 12:40:56;;;;;;;3.65;1.55;;;19.10;99.90;;;;;;5092589;28;20039;-77
2021/11/05 12:43:22;;;;;;;3.05;1.20;;;19.10;99.90;;;;;;5092371;28;20031;-77
2021/11/05 12:45:52;;;;;;;4.47;1.33;;;19.10;99.90;;;;;;5092532;28;20024;-76
2021/11/05 12:48:46;;;;;;;3.70;1.60;;;19.20;99.90;;;;;;5092124;28;20476;-76